KKLS/KLS METAR and TAF weather

Enter ICAO airport designator
Station Type Date Time Source
KKLS METAR 2020/06/06 20:56 UTC NOAA

KKLS 062056Z AUTO 00000KT 5SM RA BKN030 BKN038 OVC055 12/09 A2984 RMK AO2 SLP107 P0003 60020 T01220094 53001


Station Type Date Time Source
KKLS Decoded METAR 2020/06/06 20:56 UTC NOAA

Kelso, Kelso-Longview Airport, WA, United States (KKLS) 46-07N 122-54W
Jun 06, 2020 - 04:56 PM EDT / 2020.06.06 2056 UTC
Wind: Calm:0
Visibility: 5 mile(s):0
Sky conditions: overcast
Weather: rain
Precipitation last hour: 0.03 inches
Temperature: 54.0 F (12.2 C)
Dew Point: 48.9 F (9.4 C)
Relative Humidity: 82%
Pressure (altimeter): 29.84 in. Hg (1010 hPa)
Pressure tendency: 0.00 inches (0.1 hPa) higher than three hours ago
ob: KKLS 062056Z AUTO 00000KT 5SM RA BKN030 BKN038 OVC055 12/09 A2984 RMK AO2 SLP107 P0003 60020 T01220094 53001
cycle: 21

Station Type Date Time Source
KKLS TAF UTC NOAA

Error!

Example: see airport list